Time;durP1;ratioP1;P1;durP2;ratioP2;P2;SDS_P1;SDS_P2;PMS_P1;PMS_P2;Temp;Humidity;BMP_temperature;BMP_pressure;BME280_temperature;BME280_humidity;BME280_pressure;Samples;Min_cycle;Max_cycle;Signal;HPM_P1;HPM_P2
2021/10/24 00:00:43;;;;;;;3.42;2.85;;;;;;;7.50;71.56;94888.63;4969854;28;20508;-74
2021/10/24 00:03:09;;;;;;;3.22;2.58;;;;;;;7.35;71.99;94883.38;4968397;28;20097;-74
2021/10/24 00:05:34;;;;;;;2.90;2.50;;;;;;;7.50;72.22;94886.00;4966150;28;20457;-74
2021/10/24 00:07:59;;;;;;;4.38;2.58;;;;;;;7.58;72.22;94864.25;4967956;28;20057;-74
2021/10/24 00:10:25;;;;;;;4.00;2.97;;;;;;;7.81;71.91;94885.97;4968416;28;20042;-75
2021/10/24 00:12:50;;;;;;;4.30;2.95;;;;;;;7.82;71.39;94871.66;4965694;28;20045;-75
2021/10/24 00:15:15;;;;;;;3.30;2.53;;;;;;;7.82;69.82;94882.25;4965897;28;20058;-75
2021/10/24 00:17:41;;;;;;;4.55;2.95;;;;;;;7.59;70.65;94884.38;4966683;28;20425;-74
2021/10/24 00:20:07;;;;;;;3.20;2.83;;;;;;;7.24;71.34;94892.34;4968993;28;20034;-74
2021/10/24 00:22:33;;;;;;;3.58;3.03;;;;;;;7.06;72.02;94895.53;4968590;28;20042;-75
2021/10/24 00:24:58;;;;;;;3.88;2.78;;;;;;;6.98;72.87;94870.44;4968150;28;20045;-75
2021/10/24 00:27:24;;;;;;;5.10;3.05;;;;;;;6.98;72.91;94864.34;4967930;28;20723;-75
2021/10/24 00:29:50;;;;;;;7.03;3.47;;;;;;;6.72;73.58;94864.31;4966995;28;20038;-75
2021/10/24 00:32:15;;;;;;;4.35;3.58;;;;;;;6.86;73.73;94881.25;4980246;28;20077;-75
2021/10/24 00:34:40;;;;;;;4.95;3.08;;;;;;;6.74;74.29;94875.44;4968803;28;20277;-75
2021/10/24 00:37:07;;;;;;;6.25;3.35;;;;;;;6.64;73.79;94833.13;4967827;28;20132;-75
2021/10/24 00:39:32;;;;;;;6.32;4.28;;;;;;;7.16;73.41;94896.34;4967748;28;20896;-75
2021/10/24 00:41:58;;;;;;;4.78;3.42;;;;;;;6.92;72.68;94886.53;4965397;28;20136;-75
2021/10/24 00:44:29;;;;;;;5.60;3.83;;;;;;;7.13;73.27;94901.38;4967889;28;20096;-75
2021/10/24 00:46:56;;;;;;;6.43;4.25;;;;;;;7.06;72.40;94879.66;4966690;28;20517;-75
2021/10/24 00:49:23;;;;;;;5.20;3.75;;;;;;;7.16;72.43;94900.84;4965766;28;20042;-75
2021/10/24 00:51:49;;;;;;;5.50;3.83;;;;;;;7.12;72.50;94897.13;4965952;28;20571;-75
2021/10/24 00:54:19;;;;;;;7.18;3.30;;;;;;;6.96;72.57;94869.09;4967745;28;20223;-75
2021/10/24 00:56:47;;;;;;;5.00;3.65;;;;;;;7.10;72.58;94902.69;4971022;28;20142;-75
2021/10/24 00:59:12;;;;;;;4.30;3.65;;;;;;;7.03;72.59;94894.25;4968115;28;20413;-75
2021/10/24 01:01:38;;;;;;;6.57;4.22;;;;;;;7.16;72.41;94884.97;4966767;28;20046;-75
2021/10/24 01:04:04;;;;;;;7.93;3.97;;;;;;;7.15;71.70;94880.72;4964600;28;20046;-74
2021/10/24 01:06:37;;;;;;;6.32;4.20;;;;;;;7.31;71.56;94882.31;4967118;28;20018;-75
2021/10/24 01:09:07;;;;;;;8.07;4.78;;;;;;;7.32;71.71;94878.63;4967110;28;20046;-75
2021/10/24 01:11:33;;;;;;;5.82;4.25;;;;;;;7.26;72.20;94885.75;4966347;28;20035;-75
2021/10/24 01:13:59;;;;;;;5.20;3.63;;;;;;;7.27;72.06;94894.50;4966527;28;20115;-75
2021/10/24 01:16:25;;;;;;;8.43;3.85;;;;;;;7.37;71.75;94881.25;4968717;28;20528;-75
2021/10/24 01:18:51;;;;;;;7.22;4.10;;;;;;;7.18;71.77;94867.78;4965347;28;20589;-75
2021/10/24 01:21:18;;;;;;;5.97;4.22;;;;;;;7.33;71.86;94879.41;4967973;28;20034;-75
2021/10/24 01:23:43;;;;;;;4.53;2.92;;;;;;;7.26;71.37;94850.56;4966629;28;20409;-74
2021/10/24 01:26:09;;;;;;;3.88;3.47;;;;;;;7.32;70.97;94854.78;4967483;28;20030;-75
2021/10/24 01:28:35;;;;;;;5.15;2.95;;;;;;;7.28;71.07;94874.91;4964165;28;20066;-74
2021/10/24 01:31:01;;;;;;;5.35;3.35;;;;;;;7.46;71.31;94870.91;4966939;28;20402;-74
2021/10/24 01:33:28;;;;;;;5.03;3.42;;;;;;;7.46;70.69;94871.72;4965096;28;20026;-73
2021/10/24 01:35:59;;;;;;;6.32;3.83;;;;;;;7.32;69.99;94846.84;4966360;28;20045;-75
2021/10/24 01:38:26;;;;;;;8.90;4.60;;;;;;;7.05;70.24;94835.75;4982505;28;20418;-75
2021/10/24 01:40:52;;;;;;;7.78;4.43;;;;;;;7.08;70.79;94857.19;4965774;28;20528;-74
2021/10/24 01:43:19;;;;;;;7.07;4.18;;;;;;;7.10;71.05;94870.16;4964777;28;20046;-74
2021/10/24 01:45:45;;;;;;;6.25;4.57;;;;;;;6.98;71.09;94869.63;4963472;28;20062;-75
2021/10/24 01:48:10;;;;;;;9.30;4.90;;;;;;;7.02;71.88;94874.13;4968112;28;20479;-74
2021/10/24 01:50:36;;;;;;;9.65;5.32;;;;;;;6.99;72.08;94895.03;4979521;28;20508;-74
2021/10/24 01:53:02;;;;;;;9.57;4.88;;;;;;;6.92;71.88;94895.28;4960454;28;20062;-75
2021/10/24 01:55:28;;;;;;;8.63;5.20;;;;;;;6.84;72.00;94891.31;4968463;28;20049;-75
2021/10/24 01:57:54;;;;;;;8.45;5.60;;;;;;;6.82;72.34;94896.06;4962889;28;20093;-75
2021/10/24 02:00:21;;;;;;;7.32;4.82;;;;;;;6.83;72.41;94892.38;4969063;28;20023;-75
2021/10/24 02:02:47;;;;;;;6.05;5.25;;;;;;;6.79;71.92;94895.81;4964558;28;20038;-75
2021/10/24 02:05:12;;;;;;;8.23;4.65;;;;;;;6.86;72.69;94894.47;4967066;28;20045;-75
2021/10/24 02:07:38;;;;;;;8.30;6.10;;;;;;;6.88;73.53;94910.09;4966404;28;20035;-75
2021/10/24 02:10:05;;;;;;;9.48;5.38;;;;;;;7.00;71.84;94902.69;4964952;28;20049;-74
2021/10/24 02:12:31;;;;;;;8.93;5.32;;;;;;;7.09;71.42;94895.03;4967102;28;20030;-75
2021/10/24 02:14:56;;;;;;;6.38;5.28;;;;;;;7.23;71.29;94904.03;4970322;28;20039;-75
2021/10/24 02:17:22;;;;;;;7.80;5.00;;;;;;;7.34;71.05;94913.53;4965046;28;20039;-75
2021/10/24 02:19:47;;;;;;;10.30;6.22;;;;;;;7.22;70.60;94913.81;4971934;28;20051;-75
2021/10/24 02:22:13;;;;;;;13.20;6.53;;;;;;;7.14;70.60;94910.91;4965544;28;20047;-75
2021/10/24 02:24:38;;;;;;;10.60;5.90;;;;;;;7.22;70.05;94915.66;4962128;28;20026;-75
2021/10/24 02:27:04;;;;;;;9.45;6.25;;;;;;;7.22;70.13;94900.59;4964697;28;20489;-75
2021/10/24 02:29:29;;;;;;;12.18;6.18;;;;;;;7.21;70.12;94917.50;4968093;28;20042;-75
2021/10/24 02:31:55;;;;;;;9.35;6.55;;;;;;;7.23;69.18;94912.75;4966864;28;20057;-76
2021/10/24 02:34:20;;;;;;;10.57;6.35;;;;;;;7.04;69.71;94918.84;4963280;28;20045;-75
2021/10/24 02:36:46;;;;;;;11.63;6.38;;;;;;;7.13;69.92;94925.19;4963358;28;20109;-75
2021/10/24 02:39:11;;;;;;;8.82;6.45;;;;;;;7.06;70.01;94911.41;4970516;28;20031;-75
2021/10/24 02:41:37;;;;;;;8.18;5.60;;;;;;;7.12;69.83;94907.72;4968947;28;20057;-75
2021/10/24 02:44:02;;;;;;;9.98;5.88;;;;;;;7.11;69.31;94924.66;4971196;28;20061;-75
2021/10/24 02:46:27;;;;;;;12.15;6.88;;;;;;;6.96;69.44;94927.28;4969922;28;20420;-75
2021/10/24 02:48:53;;;;;;;11.57;6.25;;;;;;;6.92;70.18;94931.50;4963813;28;20390;-75
2021/10/24 02:51:18;;;;;;;11.25;6.93;;;;;;;6.88;70.56;94909.28;4971825;28;20062;-74
2021/10/24 02:53:44;;;;;;;11.20;6.07;;;;;;;6.85;69.89;94919.31;4967730;28;20043;-75
2021/10/24 02:56:09;;;;;;;12.57;8.15;;;;;;;6.93;69.76;94928.59;4966241;28;20162;-74
2021/10/24 02:58:34;;;;;;;10.90;6.20;;;;;;;6.96;70.63;94922.78;4966788;28;20105;-75
2021/10/24 03:01:00;;;;;;;10.57;6.18;;;;;;;6.93;68.76;94923.31;4968133;28;20034;-75
2021/10/24 03:03:26;;;;;;;11.07;7.28;;;;;;;6.64;69.73;94915.06;4971400;28;20385;-75
2021/10/24 03:05:51;;;;;;;10.85;6.60;;;;;;;6.85;70.34;94940.47;4965842;28;20113;-75
2021/10/24 03:08:17;;;;;;;12.73;6.65;;;;;;;6.86;69.05;94923.56;4971675;28;20050;-75
2021/10/24 03:10:42;;;;;;;12.15;6.57;;;;;;;6.89;69.10;94913.53;4967624;28;20221;-75
2021/10/24 03:13:07;;;;;;;8.32;5.88;;;;;;;6.88;68.43;94928.59;4968016;28;20369;-75
2021/10/24 03:15:33;;;;;;;11.63;6.38;;;;;;;6.86;68.26;94928.84;4967124;28;20069;-75
2021/10/24 03:17:59;;;;;;;9.73;5.97;;;;;;;7.02;69.14;94940.25;4967204;28;20924;-75
2021/10/24 03:20:24;;;;;;;11.48;6.35;;;;;;;7.02;67.81;94940.25;4971155;28;20049;-75
2021/10/24 03:22:50;;;;;;;12.82;6.90;;;;;;;7.02;67.61;94905.06;4968673;28;20038;-74
2021/10/24 03:25:15;;;;;;;10.00;6.03;;;;;;;7.29;67.05;94934.69;4966697;28;20061;-74
2021/10/24 03:27:41;;;;;;;10.20;6.57;;;;;;;7.24;67.50;94927.56;4965988;28;20105;-73
2021/10/24 03:30:07;;;;;;;9.27;5.72;;;;;;;7.21;66.84;94909.56;4967885;28;20031;-75
2021/10/24 03:32:32;;;;;;;10.48;6.45;;;;;;;7.38;66.71;94919.91;4967776;28;20669;-75
2021/10/24 03:34:58;;;;;;;14.85;8.30;;;;;;;7.40;66.47;94931.00;4966154;28;20568;-74
2021/10/24 03:37:23;;;;;;;13.05;6.97;;;;;;;7.23;65.88;94927.84;4976220;28;20038;-75
2021/10/24 03:39:50;;;;;;;14.13;7.28;;;;;;;6.88;66.85;94880.19;4969979;28;20029;-74
2021/10/24 03:42:16;;;;;;;9.43;7.00;;;;;;;7.14;66.42;94934.72;4968741;28;20033;-74
2021/10/24 03:44:42;;;;;;;10.00;5.97;;;;;;;7.05;66.31;94915.13;4972561;28;20620;-74
2021/10/24 03:47:07;;;;;;;12.85;6.80;;;;;;;7.05;66.92;94918.56;4966588;28;20162;-74
2021/10/24 03:49:33;;;;;;;14.52;8.10;;;;;;;7.02;66.54;94931.53;4968945;28;20042;-74
2021/10/24 03:51:58;;;;;;;13.07;7.28;;;;;;;7.17;66.29;94942.13;4967376;28;20117;-75
2021/10/24 03:54:24;;;;;;;11.20;5.90;;;;;;;7.26;65.88;94927.31;4967342;28;20082;-75
2021/10/24 03:56:51;;;;;;;11.68;6.32;;;;;;;7.37;65.73;94950.06;4970150;28;20501;-74
2021/10/24 03:59:16;;;;;;;10.75;7.05;;;;;;;7.19;65.00;94926.78;4968905;28;20035;-74
2021/10/24 04:01:42;;;;;;;13.35;6.18;;;;;;;7.20;65.86;94941.59;4965901;28;20046;-74
2021/10/24 04:04:07;;;;;;;13.30;6.82;;;;;;;7.33;65.97;94940.28;4967859;28;20559;-75
2021/10/24 04:06:33;;;;;;;12.38;6.90;;;;;;;7.45;65.41;94946.88;4967002;28;20018;-75
2021/10/24 04:08:59;;;;;;;12.10;6.93;;;;;;;7.40;65.87;94933.66;4969724;28;20466;-74
2021/10/24 04:11:24;;;;;;;12.23;7.10;;;;;;;7.47;65.39;94954.56;4961832;28;20451;-73
2021/10/24 04:13:49;;;;;;;10.88;6.28;;;;;;;7.40;65.12;94936.28;4969075;28;20049;-74
2021/10/24 04:16:15;;;;;;;12.18;6.63;;;;;;;7.41;64.12;94955.63;4965547;28;20039;-74
2021/10/24 04:18:40;;;;;;;10.82;6.55;;;;;;;7.20;64.34;94933.63;4973034;28;20088;-73
2021/10/24 04:21:05;;;;;;;10.32;6.78;;;;;;;7.41;65.13;94945.81;4965811;28;20081;-74
2021/10/24 04:23:31;;;;;;;10.35;6.40;;;;;;;7.46;64.39;94942.38;4969056;28;20100;-75
2021/10/24 04:25:56;;;;;;;12.20;6.75;;;;;;;7.45;63.88;94940.78;4963603;28;20580;-74
2021/10/24 04:28:25;;;;;;;13.02;7.03;;;;;;;7.21;64.37;94943.16;4968708;28;20045;-75
2021/10/24 04:30:51;;;;;;;17.80;8.15;;;;;;;7.09;65.24;94953.22;4966571;28;20494;-75
2021/10/24 04:33:17;;;;;;;11.82;6.57;;;;;;;7.07;65.04;94939.47;4969836;28;20034;-74
2021/10/24 04:35:42;;;;;;;16.30;8.05;;;;;;;7.13;65.02;94941.06;4965302;28;20474;-74
2021/10/24 04:38:07;;;;;;;12.77;7.90;;;;;;;7.00;64.82;94928.34;4965272;28;20408;-74
2021/10/24 04:40:33;;;;;;;14.45;7.47;;;;;;;6.95;64.32;94930.97;4963955;28;20050;-74
2021/10/24 04:42:58;;;;;;;12.13;7.97;;;;;;;7.03;64.51;94938.41;4968294;28;20041;-74
2021/10/24 04:45:24;;;;;;;7.72;5.97;;;;;;;7.16;64.28;94956.41;4965345;28;20026;-75
2021/10/24 04:47:49;;;;;;;13.73;7.00;;;;;;;7.13;63.68;94967.53;4969385;28;20516;-74
2021/10/24 04:50:15;;;;;;;9.18;6.30;;;;;;;6.88;64.10;94957.69;4969177;28;20035;-74
2021/10/24 04:52:40;;;;;;;13.38;6.78;;;;;;;6.78;63.88;94947.09;4966109;28;20149;-74
2021/10/24 04:55:06;;;;;;;10.40;6.32;;;;;;;6.90;64.11;94954.78;4966389;28;20505;-74
2021/10/24 04:57:32;;;;;;;9.88;6.63;;;;;;;6.86;63.62;94955.31;4963883;28;20046;-74
2021/10/24 04:59:57;;;;;;;12.10;5.63;;;;;;;6.58;64.04;94926.69;4965819;28;20043;-74
2021/10/24 05:02:22;;;;;;;16.73;6.57;;;;;;;6.74;63.86;94957.41;4965983;28;20046;-74
2021/10/24 05:04:48;;;;;;;15.57;8.50;;;;;;;6.67;63.27;94958.69;4969158;28;20042;-74
2021/10/24 05:07:13;;;;;;;11.05;5.88;;;;;;;6.67;63.96;94962.13;4973205;28;20043;-74
2021/10/24 05:09:39;;;;;;;10.30;5.97;;;;;;;6.71;63.42;94965.84;4968011;28;20145;-74
2021/10/24 05:12:05;;;;;;;10.30;7.07;;;;;;;6.86;63.88;94971.16;4964716;28;20528;-73
2021/10/24 05:14:30;;;;;;;10.32;7.28;;;;;;;6.92;62.98;94969.34;4967332;28;20038;-75
2021/10/24 05:16:56;;;;;;;10.73;6.95;;;;;;;6.89;62.27;94963.78;4965687;28;20101;-74
2021/10/24 05:19:21;;;;;;;8.95;5.75;;;;;;;6.92;61.87;94984.41;4965709;28;20104;-74
2021/10/24 05:21:47;;;;;;;10.77;6.88;;;;;;;6.85;61.80;94985.44;4960753;28;20136;-74
2021/10/24 05:24:12;;;;;;;10.88;7.18;;;;;;;6.70;62.01;94966.88;4968985;28;20175;-75
2021/10/24 05:26:38;;;;;;;11.60;5.85;;;;;;;6.85;62.18;94985.44;4961834;28;20422;-74
2021/10/24 05:29:03;;;;;;;14.45;7.25;;;;;;;6.78;62.07;94984.91;4967366;28;20509;-73
2021/10/24 05:31:28;;;;;;;10.38;6.32;;;;;;;6.65;62.67;94964.22;4960296;28;20030;-75
2021/10/24 05:33:54;;;;;;;10.07;5.93;;;;;;;6.80;62.35;94971.41;4962689;28;20030;-74
2021/10/24 05:36:20;;;;;;;8.02;5.68;;;;;;;6.90;61.46;94986.53;4964167;28;20628;-74
2021/10/24 05:38:45;;;;;;;11.52;6.35;;;;;;;6.85;61.68;94974.84;4962800;28;20596;-75
2021/10/24 05:41:10;;;;;;;11.68;6.65;;;;;;;7.01;61.62;94996.84;4967936;28;20050;-75
2021/10/24 05:43:36;;;;;;;12.23;7.05;;;;;;;7.07;60.89;94992.38;4967957;28;20065;-75
2021/10/24 05:46:02;;;;;;;12.10;6.00;;;;;;;7.07;60.94;94993.16;4960534;28;20061;-74
2021/10/24 05:48:27;;;;;;;9.95;6.78;;;;;;;6.85;61.68;94997.88;4968140;28;20027;-75
2021/10/24 05:50:53;;;;;;;15.82;7.97;;;;;;;6.80;61.32;95001.28;4965519;28;20043;-75
2021/10/24 05:53:18;;;;;;;11.07;5.55;;;;;;;6.83;61.48;94990.22;4963371;28;20050;-74
2021/10/24 05:55:46;;;;;;;10.32;6.88;;;;;;;6.41;60.98;94941.94;4960505;28;20053;-74
2021/10/24 05:58:11;;;;;;;8.93;5.57;;;;;;;6.74;61.31;94999.72;4963829;28;20035;-75
2021/10/24 06:00:37;;;;;;;9.30;6.25;;;;;;;6.89;60.72;95006.09;4964575;28;20504;-75
2021/10/24 06:03:04;;;;;;;9.13;5.70;;;;;;;6.97;60.45;94987.06;4962708;28;20026;-75
2021/10/24 06:05:30;;;;;;;9.48;5.88;;;;;;;6.86;59.55;94994.97;4965818;28;20038;-75
2021/10/24 06:07:55;;;;;;;7.22;5.88;;;;;;;7.01;60.36;95018.00;4966146;28;20402;-75
2021/10/24 06:10:22;;;;;;;8.98;5.30;;;;;;;6.72;60.49;94987.78;4963255;28;20034;-74
2021/10/24 06:12:51;;;;;;;8.70;5.50;;;;;;;6.98;60.46;95026.47;4963805;28;20493;-75
2021/10/24 06:15:18;;;;;;;8.45;5.78;;;;;;;7.09;60.12;95020.13;4964621;28;20458;-75
2021/10/24 06:17:45;;;;;;;13.05;6.63;;;;;;;7.14;59.40;95019.38;4963382;28;20082;-76
2021/10/24 06:20:11;;;;;;;12.90;5.72;;;;;;;7.15;58.98;95029.69;4973126;28;20043;-74
2021/10/24 06:22:38;;;;;;;9.10;5.03;;;;;;;7.29;59.13;95046.66;4963360;28;20514;-75
2021/10/24 06:25:05;;;;;;;9.60;5.47;;;;;;;7.06;58.87;95011.94;4962897;28;20527;-74
2021/10/24 06:27:31;;;;;;;12.85;6.85;;;;;;;7.14;58.74;95030.72;4963999;28;20038;-74
2021/10/24 06:29:56;;;;;;;8.93;5.50;;;;;;;7.22;58.92;95032.88;4965282;28;20050;-73
2021/10/24 06:32:22;;;;;;;9.05;5.93;;;;;;;7.30;58.98;95034.22;4963243;28;20637;-74
2021/10/24 06:34:47;;;;;;;7.72;5.00;;;;;;;7.35;58.39;95047.44;4965038;28;20041;-74
2021/10/24 06:37:17;;;;;;;10.27;5.80;;;;;;;7.25;58.53;95026.25;4965391;28;20341;-75
2021/10/24 06:39:44;;;;;;;8.18;5.43;;;;;;;7.22;59.18;95032.88;4963985;28;20424;-75
2021/10/24 06:42:09;;;;;;;11.15;5.80;;;;;;;7.23;58.53;95041.63;4960486;28;20277;-75
2021/10/24 06:44:34;;;;;;;9.80;5.63;;;;;;;7.22;58.64;95058.56;4963219;28;20081;-74
2021/10/24 06:47:00;;;;;;;9.13;6.00;;;;;;;7.14;59.11;95059.06;4963960;28;20088;-75
2021/10/24 06:49:25;;;;;;;12.48;7.20;;;;;;;7.05;58.73;95050.03;4965394;28;20371;-74
2021/10/24 06:51:51;;;;;;;11.32;6.60;;;;;;;6.80;59.77;95040.16;4960996;28;20026;-74
2021/10/24 06:54:17;;;;;;;10.13;6.28;;;;;;;6.85;60.11;95035.69;4964100;28;20801;-75
2021/10/24 06:56:42;;;;;;;8.27;5.15;;;;;;;6.92;60.19;95055.81;4963323;28;20382;-74
2021/10/24 06:59:07;;;;;;;11.10;5.85;;;;;;;6.65;59.60;95011.81;4962837;28;20046;-75
2021/10/24 07:01:33;;;;;;;10.38;6.22;;;;;;;6.70;60.00;95030.34;4962975;28;20039;-75
2021/10/24 07:03:58;;;;;;;16.27;8.60;;;;;;;6.90;60.22;95057.94;4978844;28;20512;-74
2021/10/24 07:06:23;;;;;;;12.30;7.40;;;;;;;7.15;59.94;95068.56;4961434;28;20022;-75
2021/10/24 07:08:49;;;;;;;8.02;5.70;;;;;;;7.19;59.10;95065.13;4967681;28;20591;-75
2021/10/24 07:11:15;;;;;;;10.77;6.03;;;;;;;7.20;59.46;95076.53;4971465;28;20070;-75
2021/10/24 07:13:40;;;;;;;9.00;6.18;;;;;;;7.17;59.42;95087.63;4962720;28;20731;-75
2021/10/24 07:16:06;;;;;;;10.10;5.60;;;;;;;6.97;59.72;95066.41;4963189;28;20137;-74
2021/10/24 07:18:31;;;;;;;10.65;7.05;;;;;;;7.06;60.59;95078.06;4963106;28;20382;-73
2021/10/24 07:20:57;;;;;;;10.63;6.43;;;;;;;7.05;60.20;95060.59;4964831;28;20034;-75
2021/10/24 07:23:22;;;;;;;12.93;7.85;;;;;;;7.20;60.16;95071.22;4964208;28;20045;-74
2021/10/24 07:25:48;;;;;;;10.27;7.25;;;;;;;7.33;59.30;95069.97;4968192;28;20154;-74
2021/10/24 07:28:13;;;;;;;8.60;6.50;;;;;;;7.22;58.04;95066.50;4966236;28;20035;-74
2021/10/24 07:30:39;;;;;;;12.82;6.85;;;;;;;7.16;57.76;95055.09;4966909;28;20029;-74
2021/10/24 07:33:04;;;;;;;15.30;7.60;;;;;;;7.23;58.42;95060.94;4965753;28;20033;-75
2021/10/24 07:35:30;;;;;;;14.13;7.82;;;;;;;7.34;57.98;95082.91;4964664;28;20042;-75
2021/10/24 07:37:58;;;;;;;10.65;6.55;;;;;;;7.16;57.54;95072.81;4967727;28;20132;-74
2021/10/24 07:40:24;;;;;;;10.75;7.10;;;;;;;7.20;58.17;95079.97;4966245;28;20397;-74
2021/10/24 07:42:49;;;;;;;12.43;6.13;;;;;;;6.94;57.13;95046.59;4964766;28;20048;-75
2021/10/24 07:45:15;;;;;;;11.05;6.45;;;;;;;6.94;57.20;95024.63;4969268;28;20480;-75
2021/10/24 07:47:41;;;;;;;10.60;5.72;;;;;;;6.92;56.83;95047.88;4964542;28;20041;-74
2021/10/24 07:50:10;;;;;;;10.10;5.72;;;;;;;6.81;57.34;95087.50;4964658;28;20038;-75
2021/10/24 07:52:39;;;;;;;8.77;6.43;;;;;;;6.69;57.81;95065.78;4964539;28;20042;-75
2021/10/24 07:55:05;;;;;;;9.68;6.40;;;;;;;6.76;56.55;95084.84;4959326;28;20034;-76
2021/10/24 07:57:30;;;;;;;11.43;6.72;;;;;;;6.58;56.80;95043.00;4963200;28;20072;-75
2021/10/24 07:59:56;;;;;;;8.38;4.63;;;;;;;6.72;56.48;95081.13;4966709;28;20357;-76
2021/10/24 08:02:21;;;;;;;8.13;4.95;;;;;;;6.74;56.19;95073.75;4971481;28;20030;-76
2021/10/24 08:04:48;;;;;;;14.13;5.50;;;;;;;6.91;55.86;95080.66;4965038;28;20112;-75
2021/10/24 08:07:14;;;;;;;8.85;4.95;;;;;;;6.75;55.94;95079.81;4966765;28;20073;-75
2021/10/24 08:09:44;;;;;;;7.18;5.03;;;;;;;6.94;56.61;95094.19;4968824;28;20434;-75
2021/10/24 08:12:10;;;;;;;9.05;5.20;;;;;;;6.78;56.65;95077.47;4968101;28;20456;-75
2021/10/24 08:14:36;;;;;;;14.25;5.75;;;;;;;6.93;56.39;95107.66;4965620;28;20476;-75
2021/10/24 08:17:04;;;;;;;7.57;5.32;;;;;;;7.02;57.71;95090.22;4964424;28;20051;-75
2021/10/24 08:19:30;;;;;;;8.25;4.22;;;;;;;7.10;55.71;95102.94;4970475;28;20042;-75
2021/10/24 08:21:57;;;;;;;9.50;5.13;;;;;;;7.12;55.79;95096.38;4965414;28;20775;-75
2021/10/24 08:24:23;;;;;;;10.20;5.45;;;;;;;7.27;56.15;95088.47;4968684;28;20080;-75
2021/10/24 08:26:49;;;;;;;9.80;6.70;;;;;;;7.28;55.84;95060.97;4961637;28;20508;-75
2021/10/24 08:29:15;;;;;;;9.02;4.60;;;;;;;7.34;55.56;95087.44;4966904;28;20602;-75
2021/10/24 08:31:44;;;;;;;8.48;5.43;;;;;;;7.46;56.28;95075.53;4964823;28;20088;-75
2021/10/24 08:34:10;;;;;;;12.77;5.25;;;;;;;7.61;55.89;95093.28;4959345;28;20066;-75
2021/10/24 08:36:36;;;;;;;8.98;5.88;;;;;;;7.53;56.50;95086.66;4957341;28;21574;-73
2021/10/24 08:39:02;;;;;;;15.00;6.00;;;;;;;7.60;55.24;95103.09;4964238;28;20034;-74
2021/10/24 08:41:29;;;;;;;9.40;5.65;;;;;;;7.61;55.28;95080.84;4967024;28;20133;-75
2021/10/24 08:43:57;;;;;;;7.93;5.90;;;;;;;7.80;55.33;95089.09;4966447;28;20066;-75
2021/10/24 08:46:23;;;;;;;8.82;5.30;;;;;;;7.91;55.11;95089.91;4952973;28;20654;-75
2021/10/24 08:48:49;;;;;;;9.38;5.38;;;;;;;7.98;54.39;95093.06;4962342;28;20038;-75
2021/10/24 08:51:16;;;;;;;9.35;5.65;;;;;;;7.88;53.80;95093.06;4962282;28;20065;-75
2021/10/24 08:53:50;;;;;;;6.55;4.80;;;;;;;7.93;53.58;95103.66;4957078;28;20030;-74
2021/10/24 08:56:25;;;;;;;12.60;6.70;;;;;;;7.95;53.47;95094.41;4978419;28;20035;-75
2021/10/24 08:58:52;;;;;;;11.25;5.20;;;;;;;8.10;53.84;95075.06;4954816;28;20933;-75
2021/10/24 09:01:19;;;;;;;8.63;4.43;;;;;;;8.02;52.38;95078.25;4955915;28;20042;-75
2021/10/24 09:04:20;;;;;;;8.50;4.75;;;;;;;8.16;52.47;95089.91;4967176;28;20033;-75
2021/10/24 09:06:48;;;;;;;7.32;4.95;;;;;;;8.03;51.47;95091.22;4941067;28;20039;-74
2021/10/24 09:09:31;;;;;;;7.88;4.35;;;;;;;8.14;50.87;95092.00;4962174;28;20038;-74
2021/10/24 09:11:59;;;;;;;6.82;4.03;;;;;;;8.19;51.03;95097.31;4966959;28;20100;-74
2021/10/24 09:14:38;;;;;;;8.88;4.50;;;;;;;8.38;51.26;95093.03;4956436;28;20564;-74
2021/10/24 09:17:10;;;;;;;7.43;4.25;;;;;;;8.43;51.31;95082.44;4959296;28;20571;-75
2021/10/24 09:19:41;;;;;;;8.23;4.68;;;;;;;8.52;50.04;95077.38;4961423;28;20038;-74
2021/10/24 09:22:28;;;;;;;8.02;5.10;;;;;;;8.58;49.81;95100.97;4962328;28;20074;-74
2021/10/24 09:25:05;;;;;;;6.38;4.40;;;;;;;8.48;50.40;95079.75;4961752;28;20022;-74
2021/10/24 09:27:59;;;;;;;7.55;4.55;;;;;;;8.56;49.06;95086.38;4960900;28;20031;-73
2021/10/24 09:30:34;;;;;;;7.00;4.60;;;;;;;8.43;49.37;95089.59;4963900;28;20050;-75
2021/10/24 09:33:10;;;;;;;;;;;;;;;8.59;50.29;95094.59;4958415;28;20070;-75
2021/10/24 09:35:41;;;;;;;5.05;3.97;;;;;;;8.47;50.12;95093.28;4958837;28;19922;-74
2021/10/24 09:38:17;;;;;;;4.03;3.30;;;;;;;8.39;48.66;95094.63;4961830;28;20058;-73
2021/10/24 09:40:48;;;;;;;5.30;3.60;;;;;;;8.47;48.28;95091.44;4964341;28;20041;-74
2021/10/24 09:43:30;;;;;;;4.57;3.47;;;;;;;8.55;48.61;95087.44;4963584;28;20042;-74
2021/10/24 09:45:56;;;;;;;8.27;4.38;;;;;;;8.66;48.65;95080.28;4947538;28;20073;-74
2021/10/24 09:48:24;;;;;;;7.53;4.18;;;;;;;8.49;48.14;95052.19;4962194;28;20560;-74
2021/10/24 09:50:52;;;;;;;7.25;3.72;;;;;;;8.75;48.77;95082.09;4963098;28;20065;-74
2021/10/24 09:53:26;;;;;;;7.43;4.38;;;;;;;8.77;48.18;95079.16;4958090;28;20782;-74
2021/10/24 09:55:57;;;;;;;6.00;3.03;;;;;;;8.73;46.44;95070.16;4963253;28;20473;-74
2021/10/24 09:58:35;;;;;;;6.28;3.55;;;;;;;8.53;47.32;95068.34;4964569;28;20081;-74
2021/10/24 10:01:00;;;;;;;5.63;3.10;;;;;;;8.59;46.50;95052.16;4960060;28;20113;-75
2021/10/24 10:03:28;;;;;;;9.05;3.05;;;;;;;8.66;45.73;95054.50;4963374;28;20034;-74
2021/10/24 10:05:56;;;;;;;5.28;2.67;;;;;;;8.62;47.22;95061.44;4962842;28;20031;-75
2021/10/24 10:08:22;;;;;;;4.05;3.42;;;;;;;8.50;47.07;95051.13;4964890;28;20097;-74
2021/10/24 10:11:00;;;;;;;6.85;3.65;;;;;;;8.74;47.20;95063.78;4965491;28;20035;-75
2021/10/24 10:13:27;;;;;;;5.80;3.40;;;;;;;8.32;46.18;94998.69;4966767;28;20805;-74
2021/10/24 10:15:54;;;;;;;4.55;4.05;;;;;;;8.77;47.15;95069.34;4962383;28;20043;-75
2021/10/24 10:18:21;;;;;;;5.65;3.67;;;;;;;8.76;46.80;95058.97;4963363;28;20481;-73
2021/10/24 10:20:52;;;;;;;5.95;3.10;;;;;;;8.68;46.12;95059.56;4963129;28;20062;-74
2021/10/24 10:23:21;;;;;;;5.53;3.00;;;;;;;8.75;45.43;95057.44;4959704;28;20112;-74
2021/10/24 10:25:48;;;;;;;7.00;3.60;;;;;;;8.74;45.39;95063.78;4957237;28;20042;-73
2021/10/24 10:28:52;;;;;;;5.22;3.35;;;;;;;8.65;45.25;95036.25;4961980;28;20071;-74
2021/10/24 10:31:19;;;;;;;4.65;3.00;;;;;;;8.91;44.57;95074.84;4948129;28;20047;-74
2021/10/24 10:34:05;;;;;;;6.72;2.53;;;;;;;8.88;44.74;95064.78;4941801;28;20424;-74
2021/10/24 10:36:47;;;;;;;4.68;2.83;;;;;;;8.98;44.53;95059.44;4961871;28;20542;-74
2021/10/24 10:39:31;;;;;;;3.97;3.13;;;;;;;9.06;44.43;95071.34;4968376;28;20054;-74
2021/10/24 10:42:24;;;;;;;4.28;2.80;;;;;;;8.84;45.08;95056.59;4957285;28;21332;-74
2021/10/24 10:45:17;;;;;;;6.78;3.58;;;;;;;8.78;45.19;95068.28;4957864;28;20432;-75
2021/10/24 10:47:55;;;;;;;5.78;3.78;;;;;;;8.83;44.89;95067.47;4966317;28;20458;-74
2021/10/24 10:50:27;;;;;;;4.70;3.20;;;;;;;8.93;45.21;95078.03;4960557;28;20039;-74
2021/10/24 10:52:52;;;;;;;8.27;2.88;;;;;;;8.96;44.36;95057.06;4959845;28;20473;-74
2021/10/24 10:55:17;;;;;;;7.53;2.85;;;;;;;9.02;43.89;95065.78;4959858;28;20114;-75
2021/10/24 10:57:43;;;;;;;4.63;3.30;;;;;;;9.05;44.01;95065.22;4960578;28;20517;-74
2021/10/24 11:00:36;;;;;;;3.35;2.55;;;;;;;9.10;44.40;95054.59;4965597;28;20038;-75
2021/10/24 11:03:03;;;;;;;4.57;2.60;;;;;;;9.06;43.44;95024.38;4966358;28;20046;-75
2021/10/24 11:05:38;;;;;;;4.43;2.63;;;;;;;9.30;43.46;95051.06;4963511;28;20339;-74
2021/10/24 11:08:04;;;;;;;6.10;2.40;;;;;;;9.28;43.41;95048.72;4961624;28;20712;-74
2021/10/24 11:10:47;;;;;;;3.70;2.47;;;;;;;9.32;42.96;95049.75;4966595;28;20043;-75
2021/10/24 11:13:31;;;;;;;5.50;2.55;;;;;;;9.40;42.97;95051.81;4966907;28;20114;-75
2021/10/24 11:16:16;;;;;;;4.65;3.58;;;;;;;9.52;43.35;95051.47;4962884;28;20169;-74
2021/10/24 11:18:41;;;;;;;;;;;;;;;9.34;43.08;95007.75;4962004;28;20034;-75
2021/10/24 11:21:07;;;;;;;4.97;2.58;;;;;;;9.55;42.48;95058.09;4963069;28;20581;-76
2021/10/24 11:23:32;;;;;;;5.07;3.00;;;;;;;9.51;42.04;95057.84;4965607;28;20034;-75
2021/10/24 11:25:59;;;;;;;4.53;2.58;;;;;;;9.43;43.17;95038.00;4963284;28;20042;-76
2021/10/24 11:28:28;;;;;;;4.13;2.70;;;;;;;9.80;42.53;95048.06;4963813;28;20093;-76
2021/10/24 11:31:06;;;;;;;4.90;3.45;;;;;;;9.73;43.21;95049.47;4963614;28;20022;-76
2021/10/24 11:33:51;;;;;;;4.60;2.78;;;;;;;9.84;43.38;95048.31;4963077;28;20563;-75
2021/10/24 11:36:28;;;;;;;3.92;2.88;;;;;;;9.69;43.60;95032.47;4964215;28;20081;-76
2021/10/24 11:38:58;;;;;;;5.82;3.75;;;;;;;9.76;41.93;95014.38;4958562;28;20112;-76
2021/10/24 11:41:24;;;;;;;8.00;4.85;;;;;;;9.85;42.12;95026.78;4966824;28;20702;-75